• Join FlightAware (Why Join?)
  • Login
  • US Flag 
03:35AM EDT


 

Airport Tracker/Info


-or-


 

Live Flight TrackerFlight Track Log ✈ FLG3429 ✈ 07-Dec-2013 ✈ KCID - KDTW

Flight Track Log - Related Links

Times and Time Zones

All times are in EST time to prevent confusion due to time zone crossing. See the FLG3429 flight status page for this flight to view local times or setup timezone preferences in your user account.

Time Position Orientation Groundspeed Altitude Reporting Facility
EST Latitude Longitude Course Direction KTS MPH feet Rate Location/Type
11:43AM 41.9325 -91.6917 69° East 223 257 4,200  Level Chicago Center
11:44AM 41.9719 -91.6119 56° Northeast 238 274 7,200 2,700 Climbing Chicago Center
11:45AM 42.0133 -91.5264 57° Northeast 266 306 9,800 1,920 Climbing Chicago Center
11:46AM 42.0639 -91.4214 57° Northeast 327 376 11,200 1,740 Climbing Chicago Center
11:47AM 42.1308 -91.2842 57° Northeast 364 419 13,500 1,980 Climbing Chicago Center
11:48AM 41.9503 -90.7976 69° East  Level Estimated
11:48AM 42.1881 -91.1631 57° Northeast 382 440 15,300  Level Chicago Center
11:49AM 42.2481 -91.0369 57° Northeast 396 456 17,300 1,500 Climbing Chicago Center
11:50AM 42.3067 -90.9108 58° Northeast 399 459 18,400 1,440 Climbing Chicago Center
11:51AM 42.3472 -90.7656 69° East 443 510 20,300 1,080 Climbing Chicago Center
11:52AM 42.3572 -90.6039 85° East 440 506 20,700 480 Climbing Chicago Center
11:53AM 42.3692 -90.3903 86° East 470 541 21,400 780 Climbing Chicago Center
11:54AM 42.3764 -90.2078 87° East 483 556 22,400 960 Climbing Chicago Center
11:55AM 42.3861 -90.0225 86° East 494 568 23,400 1,020 Climbing Chicago Center
11:56AM 42.3994 -89.8175 85° East 499 574 24,500 900 Climbing Chicago Center
11:57AM 42.4153 -89.6306 83° East 503 579 25,300 600 Climbing Chicago Center
11:58AM 42.4442 -89.4408 78° East 526 605 25,800 480 Climbing Chicago Center
11:59AM 42.5369 -89.2956 49° Northeast 513 590 26,300 480 Climbing Chicago Center
12:00PM 42.6269 -89.1400 52° Northeast 523 602 26,800 300 Climbing Chicago Center
12:01PM 42.7192 -88.9828 51° Northeast 531 611 27,000 60 Climbing Chicago Center
12:02PM 42.8308 -88.7872 52° Northeast 546 628 27,000  Level Chicago Center
12:03PM 42.8803 -88.5847 72° East 566 651 27,000  Level Chicago Center
12:04PM 42.9222 -88.3797 74° East 568 654 27,000  Level Chicago Center
12:05PM 42.9639 -88.1772 74° East 564 649 27,000  Level Chicago Center
12:06PM 42.9914 -87.9700 80° East 563 648 27,000  Level Chicago Center
12:07PM 43.0186 -87.7178 82° East 564 649 27,000  Level Chicago Center
12:08PM 43.0403 -87.5083 82° East 562 647 27,000  Level Chicago Center
12:09PM 43.0625 -87.2839 82° East 560 644 27,000  Level Chicago Center
12:10PM 43.0842 -87.0719 82° East 562 647 27,000  Level Chicago Center
12:11PM 43.1044 -86.8611 82° East 561 646 27,000  Level Chicago Center
12:12PM 43.1239 -86.6508 83° East 559 643 27,000  Level Chicago Center
12:13PM 43.1442 -86.4392 82° East 561 646 27,000 -300 Level Chicago Center
12:14PM 43.1633 -86.2247 83° East 562 647 26,400 -780 Descending Chicago Center
12:16PM 43.1828 -86.0108 83° East 558 642 25,400 -1,020 Descending Chicago Center
12:17PM 43.2008 -85.8031 83° East 542 624 24,300 -1,020 Descending Chicago Center
12:18PM 43.2172 -85.6064 83° East 523 602 23,300 -660 Descending Chicago Center
12:19PM 43.2364 -85.3783 83° East 506 582 23,000 -180 Descending Chicago Center
12:20PM 43.2414 -85.1883 88° East 500 575 23,000  Level Chicago Center
12:21PM 43.2081 -85.0033 104° East 498 573 23,000  Level Chicago Center
12:22PM 43.1731 -84.8203 105° East 497 572 23,000  Level Chicago Center
12:23PM 43.1194 -84.6483 113° Southeast 490 564 23,000  Level Chicago Center
12:24PM 43.0661 -84.4753 113° Southeast 491 565 23,000 -1,140 Level Chicago Center
12:24PM 43.0336 -84.3728 113° Southeast 490 564 21,200 -3,240 Descending Cleveland Center
12:25PM 42.9792 -84.2000 113° Southeast 468 539 18,100 -3,300 Descending Cleveland Center
12:25PM 42.9753 -84.1792 104° East 476 548 17,800 -2,340 Descending Cleveland Center
12:26PM 42.9397 -84.0711 114° Southeast 437 503 16,200 -2,400 Descending Cleveland Center
12:26PM 42.9281 -84.0267 110° East 449 517 15,400 -2,280 Descending Cleveland Center
12:27PM 42.8931 -83.9242 115° Southeast 406 467 13,900 -2,160 Descending Cleveland Center
12:27PM 42.8831 -83.8825 108° East 424 488 13,200 -1,860 Descending Cleveland Center
12:28PM 42.8517 -83.7867 114° Southeast 371 427 12,000 -1,200 Descending Cleveland Center
12:28PM 42.8442 -83.7558 108° East 378 435 12,000 -540 Level Cleveland Center
12:29PM 42.7908 -83.7094 147° Southeast 294 338 11,500 -780 Descending Cleveland Center
12:30PM 42.7736 -83.6961 150° Southeast 304 350 11,200 -1,140 Descending Cleveland Center
12:30PM 42.7128 -83.6639 159° South 293 337 10,400 -1,020 Descending Cleveland Center
12:31PM 42.6992 -83.6531 150° Southeast 295 339 10,200 -900 Descending Cleveland Center
12:31PM 42.6489 -83.5975 141° Southeast 295 339 9,500 -1,020 Descending Cleveland Center
12:32PM 42.6361 -83.5808 136° Southeast 301 346 9,200 -1,080 Descending Cleveland Center
12:32PM 42.5878 -83.5233 139° Southeast 290 334 8,400 -1,080 Descending Cleveland Center
12:33PM 42.5769 -83.5081 134° Southeast 291 335 8,100 -1,620 Descending Cleveland Center
12:33PM 42.5267 -83.4467 138° Southeast 284 327 6,800 -1,800 Descending Cleveland Center
12:34PM 42.5064 -83.4219 138° Southeast 285 328 6,300 -900 Descending Cleveland Center
12:34PM 42.4694 -83.3761 138° Southeast 276 318 5,900 -1,200 Descending Cleveland Center
12:35PM 42.4500 -83.3528 138° Southeast 276 318 5,100 -1,800 Descending Cleveland Center
12:35PM 42.4139 -83.3089 138° Southeast 265 305 4,100 -1,080 Descending Cleveland Center
12:36PM 42.3944 -83.2958 154° Southeast 262 302 4,000 -900 Descending Cleveland Center
12:36PM 42.3522 -83.2944 179° South 216 249 3,200 -1,080 Descending Cleveland Center
12:37PM 42.3339 -83.2939 179° South 230 265 2,900 -660 Descending Cleveland Center
12:37PM 42.2939 -83.3147 201° Southwest 174 200 2,500 -600 Descending Cleveland Center
12:38PM 42.2878 -83.3203 214° Southwest 194 223 2,300 -900 Descending Cleveland Center
12:38PM 42.2583 -83.3406 207° Southwest 137 158 1,600 -780 Descending Cleveland Center
12:39PM 42.2531 -83.3467 221° Southwest 161 185 1,500 -600 Descending Cleveland Center
12:40PM 42.2169 -83.3744 210° Southwest 147 169 800 -720 Descending Cleveland Center
12:42PM 42.2124 -83.3534 166° South  Level Estimated
12:49PM 42.2124 -83.3534 166° South  Level Estimated